x

Portland 12 Nm Southeast Of Portland,me (44007) Wave Buoy

8:50 - Sat 24th Sep 2016 All times are EDT. -4 hours from GMT.

  • Sig Wave height 1.3ft
  • Swell Direction
  • Peak Period 10s
  • Average Period 6s
  • Wind
    11mph, 13mph gusts
  • Sea Temp 60°f
  • Luft Temp 59°f
  • Sea Pressure 1017.3mb
  • Portland 12 Nm Southeast Of Portland,me
  • Portland 12 Nm Southeast Of Portland,me

More Historic Weather Station data

Upgrade to MSW Pro to gain access to the past 30 days of data for over 8000 Wavebouys and Weather Stations around the globe.

Join Pro

Comparision Forecast

View Surf forecast
   
Sa 09/24 8:50 1.3ft 10s 6s 11 13 mph 1017.3mb 60f 59f
7:50 1.6ft 10s 5s 7
mph
1017.5mb 61f 60f
6:50 1.6ft 10s 4s 11 18 mph 1017mb 61f 61f
5:50 2ft 11s 4s 16 20 mph 1016.5mb 61f 62f
4:50 2ft 11s 4s 20 25 mph 1016mb 61f 62f
3:50 2ft 11s 4s 18 22 mph 1016.4mb 61f 62f
1:50 2ft 10s 5s 13 16 mph 1017.5mb 60f 61f
12:50 2ft 9s 6s 9 11 mph 1018.2mb 60f 59f
11:50 2ft 10s 5s 7 9 mph 1019mb 60f 57f
10:50 2ft 10s 5s 9 11 mph 1019.6mb 60f 55f
9:50 2ft 10s 4s 16 18 mph 1019.7mb 60f 54f
8:50 2ft 10s 4s 11 13 mph 1019.5mb 60f 54f
7:50 2ft 10s 4s 13 16 mph 1019.4mb 60f 53f
6:50 1.6ft 11s 4s 18 20 mph 1019mb 60f 54f
5:50 2ft 11s 5s 13 16 mph 1018.7mb 60f 53f
3:50 2ft 10s 5s 11 13 mph 1018mb 60f 55f
2:50 2.5ft 9s 5s 13 16 mph 1018.7mb 59f 55f
1:50 2.5ft 11s 5s 13 16 mph 1019.1mb 59f 55f
12:50 2.5ft 10s 5s 13
mph
1019mb 59f 56f
Fr 09/23 11:50 2.5ft 9s 4s 16
mph
1018.6mb 59f 57f
10:50 2.5ft 11s 4s 20 25 mph 1017.6mb 60f 58f
9:50 2.5ft 10s 4s 18 20 mph 1017.7mb 60f 59f
8:50 2.5ft 11s 4s 20 25 mph 1017.4mb 60f 59f
7:50 2.5ft 3s 4s 20 25 mph 1017mb 60f 60f
6:50 2.5ft 3s 4s 16 18 mph 1016.7mb 60f 60f
5:50 2.5ft 11s 4s 18 20 mph 1016mb 60f 60f
4:50 2ft 11s 4s 18 22 mph 1015.2mb 60f 61f
3:50 2ft 10s 4s 18 20 mph 1014.6mb 60f 62f
1:50 2ft 11s 5s 2 4 mph 1014.2mb 60f 64f
12:50 2.5ft 8s 5s 7 9 mph 1014.5mb 60f 62f
11:50 2.5ft 10s 5s 11 13 mph 1013.9mb 60f 62f
10:50 2ft 11s 5s 7 9 mph 1014.1mb 60f 62f
8:50 2ft 10s 4s 9 11 mph 1014.7mb 60f 62f
7:50 2ft 11s 4s 16 18 mph 1014.6mb 60f 63f
6:50 2ft 10s 4s 13 16 mph 1014.6mb 61f 63f
5:50 2ft 11s 4s 16 18 mph 1014.1mb 61f 64f
4:50 2.5ft 4s 4s 18
mph
1014.4mb 61f 64f
3:50 2.5ft 4s 4s 16 18 mph 1014.7mb 60f 64f
2:50 2.5ft 4s 4s 16 18 mph 1015.2mb 60f 64f
1:50 2.5ft 4s 4s 18 20 mph 1015.6mb 60f 65f
12:50 2ft 10s 4s 18 20 mph 1016mb 61f 65f
Do 09/22 11:50 1.6ft 8s 5s 11 13 mph 1017mb 61f 64f
10:50 1.6ft 10s 6s 9
mph
1017.8mb 61f 63f
9:50 1.3ft 9s 6s 9
mph
1018mb 61f 64f
8:50 1.3ft 9s 6s 2 4 mph 1018.4mb 62f 63f
7:50 1.3ft 10s 6s 2 4 mph 1018.5mb 63f 64f
6:50 1.3ft 10s 6s 7
mph
1018.7mb 63f 64f
5:50 1.3ft 8s 7s 7 9 mph 1018.8mb 63f 66f
4:50 1.3ft 9s 7s 7 9 mph 1018.9mb 64f 66f
3:50 1.3ft 7s 7s 9
mph
1019.2mb 63f 66f
2:50 1.3ft 8s 7s 9
mph
1019.9mb 63f 65f
1:50 1.3ft 11s 7s 7 9 mph 1020.5mb 62f 65f
12:50 1.3ft 11s 7s 7
mph
1021.2mb 62f 65f
11:50 1.6ft 9s 7s  -  2 mph 1021.5mb 60f 68f
10:50 1.3ft 10s 7s 2 4 mph 1022.1mb 60f 63f
9:50 1.3ft 11s  -  4
mph
1022.1mb 60f 62f
8:50 1.6ft 11s 7s 2 4 mph 1022.3mb 59f 62f
7:50 1.3ft 11s 7s 4
mph
1021.7mb 59f 63f
6:50 1.3ft 11s 6s  -  2 mph 1020.9mb 59f 63f
5:50 1.3ft 11s 6s 4 7 mph 1020.4mb 59f 64f
4:50 1.3ft 11s 6s  -  2 mph 1019.9mb 59f 64f
3:50 1.3ft 11s 6s 7 9 mph 1019.6mb 59f 64f
2:50 1.3ft 7s 5s 7 9 mph 1019.4mb 59f 65f
1:50 1.3ft 11s 6s 7 9 mph 1019.8mb 59f 65f
12:50 1.3ft 11s 6s 7 9 mph 1019.8mb 60f 63f
Mi 09/21 11:50 1.3ft 12s 6s 9 11 mph 1020mb 60f 64f
10:50 1.3ft 11s 5s 9 11 mph 1020mb 60f 64f
9:50 1.6ft 11s 6s 9 11 mph 1019.8mb 60f 64f
8:50 1.6ft 11s 6s 11
mph
1019.9mb 61f 65f
7:50 1.3ft 11s 5s 9 11 mph 1019.6mb 61f 65f
6:50 1.3ft 7s 5s 13
mph
1019.6mb 62f 66f
5:50 1.3ft 11s 6s 9 11 mph 1019.4mb 63f 66f
4:50 1.3ft 7s 6s 9
mph
1018.8mb 64f 66f
3:50 1.3ft 6s 6s 9
mph
1018.8mb 63f 67f
2:50 1.3ft 7s 6s 7
mph
1019.2mb 64f 67f
1:50 1.3ft 7s 6s 7
mph
1019.3mb 63f 68f
12:50 1.6ft 7s 6s 7
mph
1020mb 63f 70f
11:50 1.6ft 7s 6s 2 4 mph 1020.2mb 61f 67f
10:50 1.3ft 8s 5s 4
mph
1020.5mb 60f 65f
9:50 1.3ft 8s 6s 4
mph
1020.4mb 60f 64f
8:50 1.6ft 8s 5s 9
mph
1019.9mb 59f 62f
7:50 1.6ft 7s 5s 7 9 mph 1019.6mb 59f 63f
6:50 1.3ft 9s 5s 4 7 mph 1018.9mb 60f 62f
5:50 1.3ft 8s 5s 9
mph
1018.1mb 60f 62f
4:50 1.6ft 7s 5s 9 13 mph 1017.5mb 60f 64f
3:50 1.6ft 7s 5s 9
mph
1016.8mb 60f 64f
2:50 1.6ft 7s 5s 9 11 mph 1016.5mb 60f 63f